createdAt,value
2023-04-30T00:01:10.914Z,99.90
2023-04-30T00:03:12.800Z,99.90
2023-04-30T00:05:14.623Z,99.90
2023-04-30T00:07:16.303Z,99.90
2023-04-30T00:09:17.991Z,99.90
2023-04-30T00:11:19.667Z,99.90
2023-04-30T00:13:21.419Z,99.90
2023-04-30T00:15:23.102Z,99.90
2023-04-30T00:17:24.982Z,99.90
2023-04-30T00:19:27.151Z,99.90
2023-04-30T00:21:28.909Z,99.90
2023-04-30T00:23:30.758Z,99.90
2023-04-30T00:25:32.425Z,99.90
2023-04-30T00:27:34.098Z,99.90
2023-04-30T00:29:36.016Z,99.90
2023-04-30T00:31:37.938Z,99.90
2023-04-30T00:33:39.754Z,99.90
2023-04-30T00:35:42.210Z,99.90
2023-04-30T00:37:43.975Z,99.90
2023-04-30T00:39:45.776Z,99.90
2023-04-30T00:41:47.665Z,99.90
2023-04-30T00:43:49.460Z,99.90
2023-04-30T00:45:51.314Z,99.90
2023-04-30T00:47:53.042Z,99.90
2023-04-30T00:49:55.012Z,99.90
2023-04-30T00:51:57.226Z,99.90
2023-04-30T00:54:01.886Z,99.90
2023-04-30T00:56:04.340Z,99.90
2023-04-30T00:58:07.013Z,99.90
2023-04-30T01:00:12.189Z,99.90
2023-04-30T01:02:14.100Z,99.90
2023-04-30T01:04:16.066Z,99.90
2023-04-30T01:06:17.934Z,99.90
2023-04-30T01:08:19.704Z,99.90
2023-04-30T01:10:22.909Z,99.90
2023-04-30T01:12:39.671Z,99.90
2023-04-30T01:14:56.088Z,99.90
2023-04-30T01:17:09.460Z,99.90
2023-04-30T01:19:29.400Z,99.90
2023-04-30T01:21:33.153Z,99.90
2023-04-30T01:23:56.055Z,99.90
2023-04-30T01:26:15.043Z,99.90
2023-04-30T01:28:17.946Z,99.90
2023-04-30T01:30:21.212Z,99.90
2023-04-30T01:32:22.972Z,99.90
2023-04-30T01:34:24.752Z,99.90
2023-04-30T01:37:07.804Z,99.90
2023-04-30T01:39:31.541Z,99.90
2023-04-30T01:42:08.811Z,99.90
2023-04-30T01:44:24.256Z,99.90
2023-04-30T01:46:28.633Z,99.90
2023-04-30T01:49:03.621Z,99.90
2023-04-30T01:51:16.441Z,99.90
2023-04-30T01:53:25.574Z,99.90
2023-04-30T01:55:46.852Z,99.90
2023-04-30T01:58:00.182Z,99.90
2023-04-30T02:00:02.721Z,99.90
2023-04-30T02:02:04.748Z,99.90
2023-04-30T02:04:06.519Z,99.90
2023-04-30T02:06:08.360Z,99.90
2023-04-30T02:08:10.043Z,99.90
2023-04-30T02:10:14.923Z,99.90
2023-04-30T02:12:16.582Z,99.90
2023-04-30T02:14:18.412Z,99.90
2023-04-30T02:16:20.130Z,99.90
2023-04-30T02:18:21.971Z,99.90
2023-04-30T02:20:23.672Z,99.90
2023-04-30T02:22:25.697Z,99.90
2023-04-30T02:24:27.441Z,99.90
2023-04-30T02:26:29.071Z,99.90
2023-04-30T02:28:30.881Z,99.90
2023-04-30T02:30:32.533Z,99.90
2023-04-30T02:32:34.456Z,99.90
2023-04-30T02:34:36.161Z,99.90
2023-04-30T02:36:37.985Z,99.90
2023-04-30T02:38:39.648Z,99.90
2023-04-30T02:40:42.572Z,99.90
2023-04-30T02:42:44.260Z,99.90
2023-04-30T02:44:45.960Z,99.90
2023-04-30T02:46:47.583Z,99.90
2023-04-30T02:48:49.992Z,99.90
2023-04-30T02:50:51.713Z,99.90
2023-04-30T02:52:53.421Z,99.90
2023-04-30T02:54:55.056Z,99.90
2023-04-30T02:56:56.755Z,99.90
2023-04-30T02:58:58.376Z,99.90
2023-04-30T03:01:00.376Z,99.90
2023-04-30T03:03:02.207Z,99.90
2023-04-30T03:05:04.463Z,99.90
2023-04-30T03:07:06.858Z,99.90
2023-04-30T03:09:08.557Z,99.90
2023-04-30T03:11:10.360Z,99.90
2023-04-30T03:13:12.115Z,99.90
2023-04-30T03:15:13.855Z,99.90
2023-04-30T03:17:15.589Z,99.90
2023-04-30T03:19:17.619Z,99.90
2023-04-30T03:21:19.380Z,99.90
2023-04-30T03:23:21.543Z,99.90
2023-04-30T03:25:23.454Z,99.90
2023-04-30T03:27:25.256Z,99.90
2023-04-30T03:29:26.885Z,99.90
2023-04-30T03:31:28.622Z,99.90
2023-04-30T03:33:30.498Z,99.90
2023-04-30T03:35:33.724Z,99.90
2023-04-30T03:37:35.448Z,99.90
2023-04-30T03:39:37.093Z,99.90
2023-04-30T03:41:38.727Z,99.90
2023-04-30T03:43:40.447Z,99.90
2023-04-30T03:45:42.318Z,99.90
2023-04-30T03:47:44.322Z,99.90
2023-04-30T03:49:46.061Z,99.90
2023-04-30T03:51:47.820Z,99.90
2023-04-30T03:53:49.589Z,99.90
2023-04-30T03:55:51.336Z,99.90
2023-04-30T03:57:53.138Z,99.90
2023-04-30T03:59:55.434Z,99.90
2023-04-30T04:01:57.405Z,99.90
2023-04-30T04:03:59.320Z,99.90
2023-04-30T04:06:02.167Z,99.90
2023-04-30T04:08:03.975Z,99.90
2023-04-30T04:10:06.260Z,99.90
2023-04-30T04:12:08.085Z,99.90
2023-04-30T04:14:09.754Z,99.90
2023-04-30T04:16:11.727Z,99.90
2023-04-30T04:18:13.436Z,99.90
2023-04-30T04:20:15.218Z,99.90
2023-04-30T04:22:16.843Z,99.90
2023-04-30T04:24:18.485Z,99.90
2023-04-30T04:26:21.485Z,99.90
2023-04-30T04:28:23.267Z,99.90
2023-04-30T04:30:24.948Z,99.90
2023-04-30T04:32:27.387Z,99.90
2023-04-30T04:34:29.184Z,99.90
2023-04-30T04:36:31.636Z,99.90
2023-04-30T04:38:33.661Z,99.90
2023-04-30T04:40:37.485Z,99.90
2023-04-30T04:42:39.306Z,99.90
2023-04-30T04:44:41.414Z,99.90
2023-04-30T04:46:44.405Z,99.90
2023-04-30T04:48:46.798Z,99.90
2023-04-30T04:50:48.621Z,99.90
2023-04-30T04:52:50.245Z,99.90
2023-04-30T04:54:51.860Z,99.90
2023-04-30T04:56:53.754Z,99.90
2023-04-30T04:58:55.563Z,99.90
2023-04-30T05:00:57.634Z,99.90
2023-04-30T05:02:59.408Z,99.90
2023-04-30T05:05:01.767Z,99.90
2023-04-30T05:07:03.675Z,99.90
2023-04-30T05:09:08.968Z,99.90
2023-04-30T05:11:14.124Z,99.90
2023-04-30T05:13:17.167Z,99.90
2023-04-30T05:15:19.234Z,99.90
2023-04-30T05:17:21.033Z,99.90
2023-04-30T05:19:22.708Z,99.90
2023-04-30T05:21:26.018Z,91.90
2023-04-30T05:23:28.381Z,72.50
2023-04-30T05:25:30.189Z,51.00
2023-04-30T05:27:31.838Z,60.60
2023-04-30T05:29:33.579Z,55.50
2023-04-30T05:31:35.327Z,59.50
2023-04-30T05:33:37.233Z,43.80
2023-04-30T05:35:39.095Z,53.10
2023-04-30T05:37:40.808Z,42.70
2023-04-30T05:39:42.466Z,57.60
2023-04-30T05:41:44.193Z,46.90
2023-04-30T05:43:46.182Z,33.70
2023-04-30T05:45:47.907Z,17.40
2023-04-30T05:47:49.644Z,1.00
2023-04-30T05:49:51.340Z,1.00
2023-04-30T05:51:53.046Z,1.00
2023-04-30T05:53:54.732Z,1.00
2023-04-30T05:55:56.487Z,1.00
2023-04-30T05:57:58.181Z,1.00
2023-04-30T05:59:59.920Z,1.00
2023-04-30T06:02:02.505Z,1.00
2023-04-30T06:04:05.127Z,1.00
2023-04-30T06:06:07.117Z,1.00
2023-04-30T06:08:08.880Z,1.00
2023-04-30T06:10:11.834Z,1.00
2023-04-30T06:12:13.532Z,1.00
2023-04-30T06:14:15.270Z,1.00
2023-04-30T06:16:17.161Z,1.00
2023-04-30T06:18:18.909Z,1.00
2023-04-30T06:20:20.802Z,1.00
2023-04-30T06:22:22.528Z,1.00
2023-04-30T06:24:27.388Z,1.00
2023-04-30T06:26:29.160Z,1.00
2023-04-30T06:28:31.064Z,1.00
2023-04-30T06:30:32.718Z,1.00
2023-04-30T06:32:34.724Z,1.00
2023-04-30T06:34:37.015Z,1.00
2023-04-30T06:36:38.665Z,1.00
2023-04-30T06:38:41.318Z,1.00
2023-04-30T06:40:43.171Z,1.00
2023-04-30T06:42:46.872Z,1.00
2023-04-30T06:44:49.241Z,1.00
2023-04-30T06:46:50.906Z,99.90
2023-04-30T06:48:52.620Z,99.90
2023-04-30T06:50:54.317Z,99.90
2023-04-30T06:52:56.144Z,1.00
2023-04-30T06:54:57.778Z,1.00
2023-04-30T06:56:59.433Z,99.90
2023-04-30T06:59:01.312Z,99.90
2023-04-30T07:01:03.428Z,99.90
2023-04-30T07:03:05.499Z,1.00
2023-04-30T07:05:07.512Z,1.00
2023-04-30T07:07:09.744Z,1.00
2023-04-30T07:09:11.427Z,44.70
2023-04-30T07:11:13.662Z,1.00
2023-04-30T07:13:16.463Z,99.90
2023-04-30T07:15:18.177Z,85.90
2023-04-30T07:17:19.900Z,1.00
2023-04-30T07:19:21.608Z,1.00
2023-04-30T07:21:25.495Z,1.00
2023-04-30T07:23:29.887Z,1.00
2023-04-30T07:25:32.473Z,1.00
2023-04-30T07:27:34.123Z,1.00
2023-04-30T07:29:35.909Z,1.00
2023-04-30T07:31:37.560Z,1.00
2023-04-30T07:33:39.290Z,1.00
2023-04-30T07:35:41.432Z,1.00
2023-04-30T07:37:43.849Z,1.00
2023-04-30T07:39:45.596Z,99.90
2023-04-30T07:41:47.456Z,99.90
2023-04-30T07:43:49.082Z,99.90
2023-04-30T07:45:51.171Z,99.90
2023-04-30T07:47:52.974Z,65.40
2023-04-30T07:49:54.782Z,40.80
2023-04-30T07:51:56.883Z,1.00
2023-04-30T07:53:58.556Z,99.90
2023-04-30T07:56:00.866Z,99.90
2023-04-30T07:58:04.587Z,99.90
2023-04-30T08:00:07.116Z,99.90
2023-04-30T08:02:09.569Z,99.90
2023-04-30T08:04:11.535Z,99.90
2023-04-30T08:06:13.329Z,99.90
2023-04-30T08:08:14.995Z,1.00
2023-04-30T08:10:17.042Z,99.90
2023-04-30T08:12:19.046Z,1.00
2023-04-30T08:14:21.619Z,99.90
2023-04-30T08:16:23.347Z,1.00
2023-04-30T08:18:25.026Z,99.90
2023-04-30T08:20:27.218Z,99.90
2023-04-30T08:22:29.130Z,99.90
2023-04-30T08:24:30.776Z,99.90
2023-04-30T08:26:32.512Z,99.90
2023-04-30T08:28:34.170Z,99.90
2023-04-30T08:30:35.874Z,1.00
2023-04-30T08:32:38.133Z,99.90
2023-04-30T08:34:43.596Z,99.90
2023-04-30T08:36:45.278Z,99.90
2023-04-30T08:38:47.216Z,99.90
2023-04-30T08:41:04.458Z,99.90
2023-04-30T08:43:09.113Z,99.90
2023-04-30T08:45:13.015Z,99.90
2023-04-30T08:47:16.368Z,99.90
2023-04-30T08:49:18.113Z,99.90
2023-04-30T08:51:20.664Z,99.90
2023-04-30T08:53:22.415Z,99.90
2023-04-30T08:55:26.099Z,99.90
2023-04-30T08:57:27.977Z,99.90
2023-04-30T08:59:29.662Z,99.90
2023-04-30T09:01:31.397Z,99.90
2023-04-30T09:03:33.295Z,96.00
2023-04-30T09:05:35.084Z,99.90
2023-04-30T09:07:41.494Z,99.90
2023-04-30T09:09:45.301Z,99.90
2023-04-30T09:11:46.988Z,99.90
2023-04-30T09:13:55.413Z,99.90
2023-04-30T09:15:59.962Z,95.90
2023-04-30T09:18:11.132Z,84.90
2023-04-30T09:20:14.016Z,87.10
2023-04-30T09:22:21.144Z,94.20
2023-04-30T09:24:23.556Z,99.40
2023-04-30T09:26:36.972Z,99.90
2023-04-30T09:28:55.391Z,88.70
2023-04-30T09:30:57.769Z,55.00
2023-04-30T09:32:59.817Z,55.30
2023-04-30T09:35:02.210Z,67.00
2023-04-30T09:37:04.393Z,54.00
2023-04-30T09:39:17.427Z,51.90
2023-04-30T09:41:27.404Z,36.90
2023-04-30T09:43:29.838Z,22.30
2023-04-30T09:45:47.355Z,11.30
2023-04-30T09:47:49.290Z,7.40
2023-04-30T09:49:52.349Z,4.20
2023-04-30T09:52:03.423Z,6.70
2023-04-30T09:54:07.809Z,20.40
2023-04-30T09:56:12.967Z,34.00
2023-04-30T09:58:16.634Z,29.20
2023-04-30T10:00:19.911Z,48.30
2023-04-30T10:02:24.048Z,93.90
2023-04-30T10:04:32.069Z,99.90
2023-04-30T10:06:35.902Z,99.90
2023-04-30T10:08:43.273Z,99.90
2023-04-30T10:10:47.483Z,99.90
2023-04-30T10:12:52.896Z,99.90
2023-04-30T10:15:00.271Z,99.90
2023-04-30T10:17:13.383Z,99.90
2023-04-30T10:19:20.684Z,99.90
2023-04-30T10:21:24.704Z,99.90
2023-04-30T10:23:26.556Z,99.90
2023-04-30T10:25:29.168Z,99.90
2023-04-30T10:27:30.918Z,99.90
2023-04-30T10:29:32.645Z,99.90
2023-04-30T10:31:35.628Z,99.90
2023-04-30T10:33:54.507Z,99.90
2023-04-30T10:36:00.254Z,99.90
2023-04-30T10:38:21.686Z,99.90
2023-04-30T10:40:26.328Z,99.90
2023-04-30T10:42:28.438Z,99.90
2023-04-30T10:44:33.795Z,99.90
2023-04-30T10:46:36.956Z,99.90
2023-04-30T10:48:38.716Z,99.90
2023-04-30T10:50:46.613Z,99.90
2023-04-30T10:53:02.322Z,99.90
2023-04-30T10:55:08.531Z,99.90
2023-04-30T10:57:14.141Z,99.90
2023-04-30T10:59:15.987Z,99.90
2023-04-30T11:01:17.985Z,99.90
2023-04-30T11:03:22.565Z,99.90
2023-04-30T11:05:39.972Z,99.90
2023-04-30T11:07:52.546Z,99.90
2023-04-30T11:09:57.538Z,99.90
2023-04-30T11:12:13.476Z,99.90
2023-04-30T11:14:21.057Z,99.90
2023-04-30T11:16:30.126Z,99.90
2023-04-30T11:18:32.404Z,99.90
2023-04-30T11:20:39.373Z,99.90
2023-04-30T11:22:41.287Z,99.90
2023-04-30T11:25:04.223Z,99.90
2023-04-30T11:27:06.294Z,99.90
2023-04-30T11:29:08.501Z,99.90
2023-04-30T11:31:10.385Z,99.90
2023-04-30T11:33:12.953Z,99.90
2023-04-30T11:35:18.450Z,99.90
2023-04-30T11:37:41.324Z,99.90
2023-04-30T11:39:43.687Z,99.90
2023-04-30T11:41:46.232Z,99.90
2023-04-30T11:43:47.925Z,99.90
2023-04-30T11:46:18.990Z,99.90
2023-04-30T11:48:22.328Z,99.90
2023-04-30T11:50:29.020Z,99.90
2023-04-30T11:52:31.031Z,99.90
2023-04-30T11:54:33.414Z,99.90
2023-04-30T11:56:40.199Z,99.90
2023-04-30T11:58:43.019Z,99.90
2023-04-30T12:00:44.749Z,99.90
2023-04-30T12:02:49.130Z,99.90
2023-04-30T12:04:51.158Z,99.90
2023-04-30T12:06:52.885Z,99.90
2023-04-30T12:08:55.770Z,99.90
2023-04-30T12:10:57.466Z,99.90
2023-04-30T12:12:59.269Z,99.90
2023-04-30T12:15:18.149Z,99.90
2023-04-30T12:17:33.712Z,93.90
2023-04-30T12:19:35.417Z,97.30
2023-04-30T12:21:38.649Z,96.00
2023-04-30T12:23:40.370Z,99.90
2023-04-30T12:25:45.652Z,99.90
2023-04-30T12:27:48.904Z,98.70
2023-04-30T12:29:51.724Z,99.90
2023-04-30T12:31:54.840Z,95.20
2023-04-30T12:33:57.815Z,98.10
2023-04-30T12:35:59.608Z,91.10
2023-04-30T12:38:06.447Z,92.60
2023-04-30T12:40:09.364Z,99.90
2023-04-30T12:42:11.710Z,99.90
2023-04-30T12:44:20.510Z,99.90
2023-04-30T12:46:29.681Z,99.90
2023-04-30T12:48:44.740Z,99.90
2023-04-30T12:50:51.841Z,99.90
2023-04-30T12:52:53.620Z,99.90
2023-04-30T12:54:55.993Z,99.90
2023-04-30T12:57:09.163Z,99.90
2023-04-30T12:59:16.896Z,99.90
2023-04-30T13:01:21.785Z,99.90
2023-04-30T13:03:23.565Z,99.90
2023-04-30T13:05:25.295Z,99.90
2023-04-30T13:07:27.137Z,99.90
2023-04-30T13:09:28.885Z,99.90
2023-04-30T13:11:30.543Z,99.90
2023-04-30T13:13:33.161Z,99.90
2023-04-30T13:15:35.029Z,99.90
2023-04-30T13:17:36.868Z,99.90
2023-04-30T13:19:38.564Z,99.90
2023-04-30T13:21:41.077Z,99.90
2023-04-30T13:23:52.102Z,99.90
2023-04-30T13:25:55.752Z,99.90
2023-04-30T13:27:57.595Z,99.90
2023-04-30T13:30:00.973Z,99.90
2023-04-30T13:32:02.744Z,99.90
2023-04-30T13:34:04.416Z,99.90
2023-04-30T13:36:06.713Z,99.90
2023-04-30T13:38:08.554Z,99.90
2023-04-30T13:40:10.611Z,99.90
2023-04-30T13:42:13.876Z,99.90
2023-04-30T13:44:17.038Z,99.90
2023-04-30T13:46:18.870Z,98.60
2023-04-30T13:48:20.559Z,99.90
2023-04-30T13:50:22.254Z,99.90
2023-04-30T13:52:24.121Z,99.90
2023-04-30T13:54:25.757Z,99.90
2023-04-30T13:56:27.491Z,99.90
2023-04-30T13:58:29.291Z,99.90
2023-04-30T14:00:31.006Z,99.90
2023-04-30T14:02:32.788Z,99.90
2023-04-30T14:04:34.617Z,99.90
2023-04-30T14:06:38.802Z,91.70
2023-04-30T14:08:40.568Z,85.80
2023-04-30T14:10:42.292Z,71.10
2023-04-30T14:12:43.960Z,58.30
2023-04-30T14:14:45.720Z,60.90
2023-04-30T14:16:47.444Z,60.80
2023-04-30T14:18:49.787Z,53.00
2023-04-30T14:20:51.458Z,36.90
2023-04-30T14:22:53.164Z,24.30
2023-04-30T14:24:54.852Z,25.20
2023-04-30T14:26:56.562Z,22.60
2023-04-30T14:28:58.226Z,21.30
2023-04-30T14:30:59.879Z,24.50
2023-04-30T14:33:01.601Z,17.40
2023-04-30T14:35:04.165Z,28.50
2023-04-30T14:37:06.046Z,26.20
2023-04-30T14:39:08.795Z,26.10
2023-04-30T14:41:10.733Z,44.90
2023-04-30T14:43:12.494Z,68.60
2023-04-30T14:45:14.222Z,70.40
2023-04-30T14:47:16.142Z,66.40
2023-04-30T14:49:17.769Z,66.80
2023-04-30T14:51:19.601Z,91.60
2023-04-30T14:53:21.578Z,62.10
2023-04-30T14:55:23.316Z,61.70
2023-04-30T14:57:25.072Z,71.70
2023-04-30T14:59:27.058Z,68.40
2023-04-30T15:01:30.384Z,83.60
2023-04-30T15:03:32.171Z,80.00
2023-04-30T15:05:33.889Z,71.60
2023-04-30T15:07:36.792Z,98.50
2023-04-30T15:09:38.462Z,66.50
2023-04-30T15:11:40.113Z,85.80
2023-04-30T15:13:41.778Z,73.20
2023-04-30T15:15:43.592Z,78.80
2023-04-30T15:17:45.355Z,99.90
2023-04-30T15:19:47.102Z,99.90
2023-04-30T15:21:49.186Z,99.90
2023-04-30T15:23:51.003Z,99.90
2023-04-30T15:25:53.325Z,99.90
2023-04-30T15:27:55.199Z,99.90
2023-04-30T15:29:57.655Z,99.90
2023-04-30T15:31:59.761Z,99.90
2023-04-30T15:34:01.636Z,99.90
2023-04-30T15:36:03.968Z,99.90
2023-04-30T15:38:05.641Z,99.90
2023-04-30T15:40:10.725Z,99.90
2023-04-30T15:42:12.473Z,99.90
2023-04-30T15:44:14.131Z,99.90
2023-04-30T15:46:16.191Z,99.90
2023-04-30T15:48:17.959Z,99.90
2023-04-30T15:50:19.663Z,99.90
2023-04-30T15:52:21.290Z,99.90
2023-04-30T15:54:23.457Z,99.90
2023-04-30T15:56:26.577Z,99.90
2023-04-30T15:58:28.287Z,99.90
2023-04-30T16:00:30.262Z,99.90
2023-04-30T16:02:32.090Z,99.90
2023-04-30T16:04:33.803Z,99.90
2023-04-30T16:06:35.773Z,99.90
2023-04-30T16:08:37.818Z,99.90
2023-04-30T16:10:39.595Z,99.90
2023-04-30T16:12:41.299Z,99.90
2023-04-30T16:14:42.931Z,99.90
2023-04-30T16:16:44.797Z,99.90
2023-04-30T16:18:46.591Z,99.90
2023-04-30T16:20:49.085Z,99.90
2023-04-30T16:22:50.837Z,99.90
2023-04-30T16:24:52.614Z,99.90
2023-04-30T16:26:54.403Z,99.90
2023-04-30T16:28:56.123Z,99.90
2023-04-30T16:30:58.466Z,99.90
2023-04-30T16:33:00.231Z,99.90
2023-04-30T16:35:02.216Z,99.90
2023-04-30T16:37:04.077Z,99.90
2023-04-30T16:39:05.969Z,99.90
2023-04-30T16:41:07.808Z,99.90
2023-04-30T16:43:09.539Z,1.00
2023-04-30T16:45:11.274Z,1.00
2023-04-30T16:47:13.022Z,1.00
2023-04-30T16:49:14.841Z,1.00
2023-04-30T16:51:16.488Z,1.00
2023-04-30T16:53:18.156Z,1.00
2023-04-30T16:55:20.318Z,1.00
2023-04-30T16:57:23.468Z,1.00
2023-04-30T16:59:25.380Z,1.00
2023-04-30T17:01:27.292Z,1.00
2023-04-30T17:03:30.584Z,1.00
2023-04-30T17:05:32.554Z,1.00
2023-04-30T17:07:34.196Z,1.00
2023-04-30T17:09:37.365Z,1.00
2023-04-30T17:11:39.016Z,20.40
2023-04-30T17:13:40.669Z,99.90
2023-04-30T17:15:43.277Z,81.90
2023-04-30T17:17:44.986Z,99.90
2023-04-30T17:19:46.765Z,99.90
2023-04-30T17:21:50.581Z,99.90
2023-04-30T17:23:52.210Z,99.90
2023-04-30T17:25:53.839Z,99.90
2023-04-30T17:27:56.322Z,99.90
2023-04-30T17:29:58.348Z,1.00
2023-04-30T17:32:00.165Z,1.00
2023-04-30T17:34:02.239Z,1.00
2023-04-30T17:36:04.529Z,1.00
2023-04-30T17:38:06.233Z,1.00
2023-04-30T17:40:08.916Z,1.00
2023-04-30T17:42:10.591Z,1.00
2023-04-30T17:44:12.488Z,1.00
2023-04-30T17:46:14.309Z,49.20
2023-04-30T17:48:16.011Z,99.90
2023-04-30T17:50:17.733Z,99.90
2023-04-30T17:52:19.489Z,99.90
2023-04-30T17:54:21.250Z,1.00
2023-04-30T17:56:24.711Z,1.00
2023-04-30T17:58:27.070Z,1.00
2023-04-30T18:00:28.751Z,1.00
2023-04-30T18:02:30.446Z,1.10
2023-04-30T18:04:32.104Z,99.90
2023-04-30T18:06:33.763Z,1.00
2023-04-30T18:08:35.732Z,99.90
2023-04-30T18:10:37.661Z,99.90
2023-04-30T18:12:39.424Z,1.00
2023-04-30T18:14:41.129Z,1.00
2023-04-30T18:16:42.855Z,1.00
2023-04-30T18:18:44.535Z,99.90
2023-04-30T18:20:46.273Z,10.70
2023-04-30T18:22:47.919Z,1.00
2023-04-30T18:24:49.812Z,1.00
2023-04-30T18:26:51.499Z,1.00
2023-04-30T18:28:53.276Z,99.90
2023-04-30T18:30:56.063Z,99.90
2023-04-30T18:32:58.181Z,99.90
2023-04-30T18:34:59.863Z,1.00
2023-04-30T18:37:02.242Z,1.00
2023-04-30T18:39:05.483Z,1.00
2023-04-30T18:41:07.324Z,1.00
2023-04-30T18:43:09.327Z,99.90
2023-04-30T18:45:12.037Z,1.00
2023-04-30T18:47:14.076Z,99.90
2023-04-30T18:49:15.789Z,1.00
2023-04-30T18:51:17.591Z,99.90
2023-04-30T18:53:19.960Z,70.00
2023-04-30T18:55:21.620Z,10.90
2023-04-30T18:57:23.304Z,41.70
2023-04-30T18:59:27.344Z,99.90
2023-04-30T19:01:29.174Z,99.90
2023-04-30T19:03:31.001Z,1.00
2023-04-30T19:05:35.653Z,1.00
2023-04-30T19:07:37.453Z,1.00
2023-04-30T19:09:39.301Z,1.00
2023-04-30T19:11:41.190Z,1.00
2023-04-30T19:13:42.864Z,1.00
2023-04-30T19:15:45.517Z,1.00
2023-04-30T19:17:47.593Z,1.00
2023-04-30T19:19:50.307Z,99.90
2023-04-30T19:21:53.453Z,1.00
2023-04-30T19:23:55.340Z,1.00
2023-04-30T19:25:58.483Z,1.00
2023-04-30T19:28:00.281Z,1.00
2023-04-30T19:30:02.226Z,1.00
2023-04-30T19:32:04.864Z,99.90
2023-04-30T19:34:06.540Z,99.90
2023-04-30T19:36:08.990Z,94.40
2023-04-30T19:38:10.716Z,58.70
2023-04-30T19:40:12.940Z,1.00
2023-04-30T19:42:15.082Z,99.90
2023-04-30T19:44:18.285Z,99.90
2023-04-30T19:46:21.072Z,38.80
2023-04-30T19:48:23.713Z,11.10
2023-04-30T19:50:25.565Z,7.80
2023-04-30T19:52:27.247Z,99.90
2023-04-30T19:54:28.999Z,99.90
2023-04-30T19:56:31.951Z,99.90
2023-04-30T19:58:33.588Z,1.00
2023-04-30T20:00:41.502Z,90.60
2023-04-30T20:02:43.635Z,99.90
2023-04-30T20:04:45.439Z,99.90
2023-04-30T20:06:48.124Z,99.90
2023-04-30T20:08:49.810Z,99.90
2023-04-30T20:10:52.191Z,1.00
2023-04-30T20:12:54.656Z,99.90
2023-04-30T20:14:56.395Z,99.90
2023-04-30T20:16:58.402Z,1.00
2023-04-30T20:19:00.169Z,99.90
2023-04-30T20:21:01.863Z,1.00
2023-04-30T20:23:14.031Z,99.90
2023-04-30T20:25:15.857Z,1.00
2023-04-30T20:27:17.547Z,1.00
2023-04-30T20:29:20.651Z,1.00
2023-04-30T20:31:22.522Z,1.00
2023-04-30T20:33:25.576Z,1.00
2023-04-30T20:35:27.297Z,1.00
2023-04-30T20:37:29.175Z,1.00
2023-04-30T20:39:30.962Z,1.00
2023-04-30T20:41:32.675Z,1.00
2023-04-30T20:43:34.399Z,1.00
2023-04-30T20:45:36.623Z,1.00
2023-04-30T20:47:39.999Z,1.00
2023-04-30T20:49:43.529Z,1.00
2023-04-30T20:51:45.479Z,1.00
2023-04-30T20:53:47.294Z,1.00
2023-04-30T20:55:48.961Z,1.00
2023-04-30T20:57:51.007Z,1.00
2023-04-30T20:59:52.631Z,1.00
2023-04-30T21:01:54.287Z,1.00
2023-04-30T21:03:55.946Z,1.00
2023-04-30T21:05:57.623Z,1.00
2023-04-30T21:08:02.430Z,1.00
2023-04-30T21:10:08.356Z,1.00
2023-04-30T21:12:10.062Z,1.00
2023-04-30T21:14:11.815Z,1.00
2023-04-30T21:16:13.959Z,1.00
2023-04-30T21:18:16.771Z,1.00
2023-04-30T21:20:18.576Z,1.00
2023-04-30T21:22:20.830Z,1.00
2023-04-30T21:24:22.729Z,1.00
2023-04-30T21:26:24.407Z,1.00
2023-04-30T21:28:26.094Z,1.00
2023-04-30T21:30:27.803Z,1.00
2023-04-30T21:32:29.492Z,1.00
2023-04-30T21:34:32.129Z,1.00
2023-04-30T21:36:35.231Z,1.00
2023-04-30T21:38:37.948Z,1.00
2023-04-30T21:40:42.261Z,1.00
2023-04-30T21:42:43.953Z,1.00
2023-04-30T21:44:45.615Z,1.00
2023-04-30T21:46:47.313Z,1.00
2023-04-30T21:48:49.041Z,1.00
2023-04-30T21:50:50.722Z,1.00
2023-04-30T21:52:52.753Z,1.00
2023-04-30T21:54:54.409Z,1.00
2023-04-30T21:56:56.122Z,1.00
2023-04-30T21:58:58.000Z,1.00
2023-04-30T22:01:00.149Z,1.00
2023-04-30T22:03:02.402Z,1.00
2023-04-30T22:05:04.383Z,1.00
2023-04-30T22:07:06.089Z,1.00
2023-04-30T22:09:07.783Z,1.00
2023-04-30T22:11:09.459Z,1.00
2023-04-30T22:13:11.272Z,1.00
2023-04-30T22:15:13.161Z,99.90
2023-04-30T22:17:14.878Z,1.00
2023-04-30T22:19:17.050Z,99.90
2023-04-30T22:21:18.721Z,99.90
2023-04-30T22:23:23.585Z,99.90
2023-04-30T22:25:25.840Z,99.90
2023-04-30T22:27:27.539Z,1.00
2023-04-30T22:29:29.345Z,1.00
2023-04-30T22:31:31.450Z,99.90
2023-04-30T22:33:37.026Z,99.90
2023-04-30T22:35:39.106Z,99.90
2023-04-30T22:37:40.808Z,99.90
2023-04-30T22:39:42.718Z,99.90
2023-04-30T22:41:47.438Z,36.60
2023-04-30T22:43:49.174Z,99.90
2023-04-30T22:45:51.085Z,99.90
2023-04-30T22:47:53.675Z,99.90
2023-04-30T22:49:56.590Z,1.00
2023-04-30T22:51:58.986Z,44.80
2023-04-30T22:54:00.651Z,40.40
2023-04-30T22:56:02.395Z,99.90
2023-04-30T22:58:04.060Z,99.90
2023-04-30T23:00:06.356Z,1.00
2023-04-30T23:02:08.124Z,99.90
2023-04-30T23:04:09.826Z,99.90
2023-04-30T23:06:11.854Z,99.90
2023-04-30T23:08:13.721Z,99.90
2023-04-30T23:10:18.440Z,99.90
2023-04-30T23:12:20.152Z,99.90
2023-04-30T23:14:22.153Z,99.90
2023-04-30T23:16:23.850Z,99.90
2023-04-30T23:18:26.119Z,67.90
2023-04-30T23:20:28.413Z,99.90
2023-04-30T23:22:30.586Z,99.90
2023-04-30T23:24:35.325Z,98.60
2023-04-30T23:26:37.327Z,99.90
2023-04-30T23:28:39.056Z,94.70
2023-04-30T23:30:40.796Z,99.90
2023-04-30T23:32:42.652Z,99.90
2023-04-30T23:34:44.336Z,99.90
2023-04-30T23:36:46.067Z,99.90
2023-04-30T23:38:47.826Z,99.90
2023-04-30T23:40:49.597Z,99.90
2023-04-30T23:42:51.577Z,99.90
2023-04-30T23:44:53.407Z,1.00
2023-04-30T23:46:55.891Z,99.90
2023-04-30T23:48:57.525Z,99.90
2023-04-30T23:51:04.027Z,1.00
2023-04-30T23:53:05.722Z,1.00
2023-04-30T23:55:08.111Z,1.00
2023-04-30T23:57:10.191Z,1.00
2023-04-30T23:59:12.358Z,1.00
